Time;durP1;ratioP1;P1;durP2;ratioP2;P2;SDS_P1;SDS_P2;PMS_P1;PMS_P2;Temp;Humidity;BMP_temperature;BMP_pressure;BME280_temperature;BME280_humidity;BME280_pressure;Samples;Min_cycle;Max_cycle;Signal;HPM_P1;HPM_P2
2022/02/10 00:06:37;;;;;;;;;;;;;;;1.26;100.00;99613.51;1765238;81;20097;-66
2022/02/10 00:22:29;;;;;;;;;;;;;;;1.40;100.00;99594.19;1765357;80;20081;-66
2022/02/10 00:38:18;;;;;;;;;;;;;;;1.51;100.00;99576.98;1733424;83;21092;-70
2022/02/10 00:40:44;;;;;;;;;;;;;;;1.53;100.00;99577.55;1733562;82;20098;-70
2022/02/10 00:43:10;;;;;;;;;;;;;;;1.53;100.00;99572.95;1733590;82;20118;-71
2022/02/10 00:45:36;;;;;;;;;;;;;;;1.56;100.00;99575.14;1733973;82;21024;-70
2022/02/10 00:48:06;;;;;;;;;;;;;;;1.58;100.00;99569.48;1733617;82;20420;-70
2022/02/10 00:50:32;;;;;;;;;;;;;;;1.58;100.00;99566.77;1733130;83;21178;-66
2022/02/10 00:53:08;;;;;;;;;;;;;;;1.59;100.00;99571.11;1733389;82;20429;-66
2022/02/10 00:55:31;;;;;;;;;;;;;;;1.61;100.00;99571.67;1732333;83;20420;-66
2022/02/10 00:57:57;;;;;;;;;;;;;;;1.61;100.00;99567.08;1733473;83;20154;-68
2022/02/10 01:13:53;;;;;;;;;;;;;;;1.74;100.00;99554.17;1729733;82;20460;-66
2022/02/10 01:29:34;;;;;;;;;;;;;;;1.85;100.00;99541.81;1733507;82;20761;-68
2022/02/10 01:29:49;;;;;;;;;;;;;;;1.91;100.00;99528.60;1733647;83;21120;-66
2022/02/10 01:32:16;;;;;;;;;;;;;;;1.96;100.00;99538.12;1733463;83;20117;-66
2022/02/10 01:34:51;;;;;;;;;;;;;;;1.98;100.00;99534.61;1733314;83;20081;-66
2022/02/10 01:37:18;;;;;;;;;;;;;;;1.99;100.00;99530.83;1733277;82;20086;-67
2022/02/10 01:39:50;;;;;;;;;;;;;;;2.04;100.00;99534.65;1733366;83;20428;-67
2022/02/10 02:03:52;;;;;;;;;;;;;;;2.27;100.00;99535.08;1733389;82;20098;-65
2022/02/10 02:06:29;;;;;;;;;;;;;;;2.29;100.00;99530.76;1733296;82;20085;-65
2022/02/10 02:08:49;;;;;;;;;;;;;;;2.31;100.00;99539.44;1732464;83;21156;-65
2022/02/10 02:11:15;;;;;;;;;;;;;;;2.33;100.00;99534.01;1733296;82;20133;-65
2022/02/10 02:13:42;;;;;;;;;;;;;;;2.35;100.00;99537.81;1733258;83;20069;-65
2022/02/10 02:16:08;;;;;;;;;;;;;;;2.38;100.00;99535.93;1733592;83;20142;-65
2022/02/10 02:18:35;;;;;;;;;;;;;;;2.40;100.00;99541.91;1733274;82;20401;-65
2022/02/10 02:21:01;;;;;;;;;;;;;;;2.42;100.00;99541.64;1733283;83;20436;-66
2022/02/10 02:23:28;;;;;;;;;;;;;;;2.44;100.00;99540.84;1733252;83;20073;-66
2022/02/10 02:26:06;;;;;;;;;;;;;;;2.48;100.00;99537.88;1733368;83;20201;-67
2022/02/10 02:28:28;;;;;;;;;;;;;;;2.50;100.00;99539.25;1732849;82;20086;-66
2022/02/10 02:31:00;;;;;;;;;;;;;;;2.54;100.00;99540.90;1733555;83;20081;-65
2022/02/10 03:08:50;;;;;;;;;;;;;;;2.79;100.00;99551.05;1703617;84;20407;-69
2022/02/10 03:11:12;;;;;;;;;;;;;;;2.79;100.00;99547.80;1703358;84;20120;-69
2022/02/10 03:13:48;;;;;;;;;;;;;;;2.79;100.00;99545.09;1703961;84;21152;-69
2022/02/10 03:19:00;;;;;;;;;;;;;;;2.80;100.00;99548.61;1704102;83;20084;-69
2022/02/10 03:21:42;;;;;;;;;;;;;;;2.80;100.00;99551.33;1702313;84;20099;-69
2022/02/10 04:12:51;;;;;;;;;;;;;;;2.97;100.00;99557.33;1702567;83;20100;-65
2022/02/10 04:23:10;;;;;;;;;;;;;;;2.93;100.00;99553.52;1702327;83;20431;-66
2022/02/10 04:25:42;;;;;;;;;;;;;;;2.92;100.00;99560.84;1684613;84;20191;-65
2022/02/10 04:38:58;;;;;;;;;;;;;;;2.89;100.00;99534.25;1726532;82;20152;-71
2022/02/10 04:58:03;;;;;;;;;;;;;;;3.06;100.00;99553.03;1704870;83;20100;-62
2022/02/10 05:37:53;;;;;;;;;;;;;;;3.09;100.00;99593.19;1682784;83;20139;-62
2022/02/10 05:56:39;;;;;;;;;;;;;;;3.16;100.00;99604.61;1646725;85;20092;-64
2022/02/10 05:59:21;;;;;;;;;;;;;;;3.16;100.00;99603.25;1681640;85;20100;-62
2022/02/10 06:51:21;;;;;;;;;;;;;;;3.47;100.00;99610.10;1702937;83;20076;-66
2022/02/10 07:04:37;;;;;;;;;;;;;;;3.55;100.00;99622.61;1704933;83;20119;-70
2022/02/10 07:47:39;;;;;;;;;;;;;;;3.80;100.00;99636.79;1713089;83;20140;-63
2022/02/10 07:53:05;;;;;;;;;;;;;;;3.86;100.00;99641.14;1669193;83;20157;-65
2022/02/10 08:29:37;;;;;;;;;;;;;;;4.48;100.00;99659.09;1704267;83;20092;-63
2022/02/10 09:27:56;;;;;;;;;;;;;;;5.41;100.00;99667.26;1656252;85;20187;-64
2022/02/10 09:56:56;;;;;;;;;;;;;;;5.93;100.00;99649.83;1739892;82;22003;-70
2022/02/10 10:02:16;;;;;;;;;;;;;;;6.70;100.00;99655.47;1739854;82;20083;-67
2022/02/10 10:04:53;;;;;;;;;;;;;;;6.94;96.87;99649.47;1739471;82;20422;-70
2022/02/10 10:07:34;;;;;;;;;;;;;;;6.91;94.67;99652.80;1720966;82;20107;-68
2022/02/10 10:09:58;;;;;;;;;;;;;;;6.68;94.31;99648.13;1735249;82;21934;-69
2022/02/10 10:15:17;;;;;;;;;;;;;;;6.21;96.10;99648.82;1739779;82;20104;-68
2022/02/10 10:18:16;;;;;;;;;;;;;;;6.07;97.08;99658.73;1737959;82;21150;-63
2022/02/10 10:20:32;;;;;;;;;;;;;;;5.92;97.27;99659.65;1730063;82;20075;-62
2022/02/10 10:23:10;;;;;;;;;;;;;;;5.80;98.08;99655.88;1738228;82;21786;-66
2022/02/10 10:58:37;;;;;;;;;;;;;;;8.02;84.40;99627.86;1695296;84;20101;-66
2022/02/10 11:38:07;;;;;;;;;;;;;;;6.11;93.30;99614.28;1675717;85;20088;-65
2022/02/10 11:40:41;;;;;;;;;;;;;;;6.09;93.73;99617.02;1635488;85;20184;-66
2022/02/10 11:43:14;;;;;;;;;;;;;;;6.11;94.14;99624.37;1643357;85;20099;-65
2022/02/10 11:59:36;;;;;;;;;;;;;;;6.14;93.33;99618.34;1647022;86;20105;-65
2022/02/10 14:13:07;;;;;;;;;;;;;;;5.71;94.54;99657.59;1754008;81;20091;-63
2022/02/10 14:15:33;;;;;;;;;;;;;;;6.11;92.35;99664.70;1748837;81;20171;-64
2022/02/10 14:25:54;;;;;;;;;;;;;;;6.76;86.54;99657.59;1755746;81;20712;-64
2022/02/10 14:28:12;;;;;;;;;;;;;;;6.62;86.92;99658.27;1745375;81;20426;-65
2022/02/10 14:30:39;;;;;;;;;;;;;;;6.49;86.69;99663.02;1753320;81;21209;-65
2022/02/10 14:33:06;;;;;;;;;;;;;;;6.36;87.28;99669.67;1755905;81;20117;-64
2022/02/10 14:35:48;;;;;;;;;;;;;;;6.23;87.59;99661.07;1753007;81;20095;-66
2022/02/10 14:38:21;;;;;;;;;;;;;;;6.08;87.98;99656.28;1750463;81;20147;-66
2022/02/10 15:20:41;;;;;;;;;;;;;;;3.95;100.00;99670.77;1739744;82;20633;-63
2022/02/10 15:21:34;;;;;;;;;;;;;;;3.89;100.00;99666.95;1735264;82;20099;-66
2022/02/10 15:53:14;;;;;;;;;;;;;;;3.17;100.00;99676.77;1701887;84;20119;-63
2022/02/10 16:14:56;;;;;;;;;;;;;;;2.75;100.00;99687.66;1681759;85;20129;-64
2022/02/10 16:17:05;;;;;;;;;;;;;;;2.70;100.00;99683.56;1678922;85;21171;-63
2022/02/10 16:19:33;;;;;;;;;;;;;;;2.65;100.00;99681.63;1682038;85;20164;-64
2022/02/10 16:22:05;;;;;;;;;;;;;;;2.61;100.00;99679.16;1682028;85;20088;-64
2022/02/10 16:24:31;;;;;;;;;;;;;;;2.59;100.00;99673.73;1680506;84;20171;-65
2022/02/10 16:27:00;;;;;;;;;;;;;;;2.58;100.00;99676.16;1681550;85;20111;-64
2022/02/10 16:29:29;;;;;;;;;;;;;;;2.54;100.00;99677.21;1681475;85;21165;-64
2022/02/10 16:31:56;;;;;;;;;;;;;;;2.50;100.00;99673.39;1727139;82;20112;-63
2022/02/10 16:34:22;;;;;;;;;;;;;;;2.48;100.00;99679.60;1739225;82;20184;-64
2022/02/10 16:36:48;;;;;;;;;;;;;;;2.44;100.00;99674.96;1718395;82;20075;-63
2022/02/10 16:39:16;;;;;;;;;;;;;;;2.41;100.00;99673.59;1739298;82;20997;-64
2022/02/10 16:41:43;;;;;;;;;;;;;;;2.37;100.00;99679.25;1724905;82;21108;-63
2022/02/10 16:44:14;;;;;;;;;;;;;;;2.36;100.00;99684.38;1703814;83;20159;-63
2022/02/10 16:46:41;;;;;;;;;;;;;;;2.35;100.00;99683.28;1722378;83;20116;-62
2022/02/10 16:49:07;;;;;;;;;;;;;;;2.33;100.00;99687.61;1691823;83;20174;-64
2022/02/10 16:51:36;;;;;;;;;;;;;;;2.32;100.00;99688.69;1668275;84;20140;-64
2022/02/10 16:54:09;;;;;;;;;;;;;;;2.29;100.00;99685.17;1665454;86;21134;-64
2022/02/10 16:56:55;;;;;;;;;;;;;;;2.27;100.00;99689.48;1664900;86;20113;-63
2022/02/10 16:59:27;;;;;;;;;;;;;;;2.26;100.00;99682.97;1659725;85;20119;-63
2022/02/10 17:04:33;;;;;;;;;;;;;;;2.22;100.00;99684.02;1715456;82;20143;-63
2022/02/10 17:18:25;;;;;;;;;;;;;;;2.19;100.00;99683.72;1722912;81;20496;-65
2022/02/10 17:25:27;;;;;;;;;;;;;;;2.14;100.00;99683.14;1680957;82;20086;-64
2022/02/10 17:27:54;;;;;;;;;;;;;;;2.14;100.00;99683.14;1739671;80;20438;-64
2022/02/10 17:30:47;;;;;;;;;;;;;;;2.14;100.00;99680.97;1721339;82;20187;-66
2022/02/10 17:46:10;;;;;;;;;;;;;;;2.17;100.00;99674.50;1690547;81;22376;-62
2022/02/10 17:51:41;;;;;;;;;;;;;;;2.16;100.00;99676.92;1736164;82;20082;-61
2022/02/10 17:53:58;;;;;;;;;;;;;;;2.14;100.00;99674.20;1736610;82;20098;-63
2022/02/10 17:56:25;;;;;;;;;;;;;;;2.15;100.00;99677.19;1737421;82;20082;-63
2022/02/10 17:58:54;;;;;;;;;;;;;;;2.14;100.00;99673.66;1737576;82;21139;-63
2022/02/10 18:01:21;;;;;;;;;;;;;;;2.13;100.00;99682.04;1729111;82;21644;-63
2022/02/10 18:03:50;;;;;;;;;;;;;;;2.13;100.00;99675.27;1720910;82;20076;-61
2022/02/10 18:06:24;;;;;;;;;;;;;;;2.15;100.00;99674.48;1708037;84;20116;-61
2022/02/10 18:17:15;;;;;;;;;;;;;;;2.04;100.00;99664.63;1737492;82;20174;-62
2022/02/10 18:19:45;;;;;;;;;;;;;;;2.01;100.00;99661.08;1737096;82;20611;-62
2022/02/10 19:10:10;;;;;;;;;;;;;;;1.46;100.00;99652.14;1757130;80;20471;-72
2022/02/10 19:12:45;;;;;;;;;;;;;;;1.42;100.00;99648.31;1757586;81;20388;-73
2022/02/10 19:15:23;;;;;;;;;;;;;;;1.41;100.00;99649.92;1757761;81;20097;-74
2022/02/10 19:17:49;;;;;;;;;;;;;;;1.41;100.00;99652.09;1757796;81;21572;-69
2022/02/10 19:20:16;;;;;;;;;;;;;;;1.42;100.00;99648.84;1758304;81;20089;-70
2022/02/10 19:22:46;;;;;;;;;;;;;;;1.43;100.00;99647.78;1733164;81;20168;-69
2022/02/10 19:25:12;;;;;;;;;;;;;;;1.46;100.00;99655.39;1734935;81;20655;-69
2022/02/10 19:27:41;;;;;;;;;;;;;;;1.48;100.00;99648.66;1734850;82;20119;-74
2022/02/10 19:30:09;;;;;;;;;;;;;;;1.50;100.00;99646.52;1734656;82;21120;-76
2022/02/10 19:32:38;;;;;;;;;;;;;;;1.54;100.00;99640.88;1735137;82;20132;-76
2022/02/10 19:35:05;;;;;;;;;;;;;;;1.59;100.00;99642.28;1735187;82;20107;-77
2022/02/10 19:37:32;;;;;;;;;;;;;;;1.65;100.00;99639.09;1734725;82;20537;-71
2022/02/10 19:40:03;;;;;;;;;;;;;;;1.72;100.00;99649.72;1735249;82;20151;-72
2022/02/10 19:42:33;;;;;;;;;;;;;;;1.79;100.00;99639.47;1686129;83;21146;-75
2022/02/10 19:45:00;;;;;;;;;;;;;;;1.87;100.00;99637.13;1704121;84;20124;-75
2022/02/10 19:47:27;;;;;;;;;;;;;;;1.94;100.00;99637.73;1703963;83;20095;-76
2022/02/10 19:49:54;;;;;;;;;;;;;;;1.99;100.00;99632.36;1704027;83;20120;-75
2022/02/10 19:52:21;;;;;;;;;;;;;;;2.04;100.00;99634.30;1703942;84;20422;-70
2022/02/10 19:54:55;;;;;;;;;;;;;;;2.13;100.00;99625.16;1716837;83;21126;-68
2022/02/10 19:57:23;;;;;;;;;;;;;;;2.19;100.00;99626.84;1732606;83;20480;-66
2022/02/10 19:59:53;;;;;;;;;;;;;;;2.26;100.00;99618.78;1733514;83;20142;-66
2022/02/10 20:02:21;;;;;;;;;;;;;;;2.35;100.00;99625.86;1733246;83;22154;-69
2022/02/10 20:04:47;;;;;;;;;;;;;;;2.41;100.00;99626.71;1731690;82;20145;-71
2022/02/10 20:07:15;;;;;;;;;;;;;;;2.44;100.00;99632.96;1719300;83;21185;-72
2022/02/10 20:09:42;;;;;;;;;;;;;;;2.48;100.00;99634.08;1703953;83;20087;-73
2022/02/10 20:12:08;;;;;;;;;;;;;;;2.51;100.00;99632.20;1703907;84;20151;-72
2022/02/10 20:14:35;;;;;;;;;;;;;;;2.54;100.00;99628.43;1703828;84;20100;-72
2022/02/10 20:17:02;;;;;;;;;;;;;;;2.58;100.00;99615.99;1703977;84;20115;-69
2022/02/10 20:19:28;;;;;;;;;;;;;;;2.61;100.00;99610.05;1703908;84;21145;-69
2022/02/10 20:21:55;;;;;;;;;;;;;;;2.62;100.00;99608.97;1682274;84;20147;-70
2022/02/10 20:24:26;;;;;;;;;;;;;;;2.63;100.00;99613.31;1700753;84;20140;-70
2022/02/10 20:26:50;;;;;;;;;;;;;;;2.62;100.00;99598.13;1702187;84;20084;-69
2022/02/10 20:29:17;;;;;;;;;;;;;;;2.64;100.00;99605.46;1702441;83;20084;-66
2022/02/10 20:31:44;;;;;;;;;;;;;;;2.65;100.00;99601.67;1702485;83;21991;-69
2022/02/10 20:34:13;;;;;;;;;;;;;;;2.67;100.00;99604.13;1702607;83;20087;-63
2022/02/10 20:36:39;;;;;;;;;;;;;;;2.71;100.00;99590.86;1703987;84;20099;-68
2022/02/10 20:39:05;;;;;;;;;;;;;;;2.73;100.00;99588.16;1704408;84;20160;-68
2022/02/10 20:41:34;;;;;;;;;;;;;;;2.75;100.00;99588.72;1712145;82;20122;-69
2022/02/10 20:44:01;;;;;;;;;;;;;;;2.77;100.00;99589.81;1740383;82;21492;-68
2022/02/10 20:46:29;;;;;;;;;;;;;;;2.77;100.00;99585.20;1739772;82;20162;-68
2022/02/10 20:48:56;;;;;;;;;;;;;;;2.80;100.00;99581.15;1740148;82;20096;-69
2022/02/10 20:51:23;;;;;;;;;;;;;;;2.81;100.00;99582.78;1739912;82;20079;-68
2022/02/10 20:53:50;;;;;;;;;;;;;;;2.81;100.00;99570.58;1750930;81;20081;-65
2022/02/10 20:56:18;;;;;;;;;;;;;;;2.82;100.00;99578.98;1765236;81;21096;-65
2022/02/10 20:58:54;;;;;;;;;;;;;;;2.81;100.00;99578.72;1754435;81;20150;-68
2022/02/10 21:01:17;;;;;;;;;;;;;;;2.82;100.00;99584.41;1756773;80;20101;-68
2022/02/10 21:03:44;;;;;;;;;;;;;;;2.82;100.00;99570.86;1762842;81;20084;-69
2022/02/10 21:08:57;;;;;;;;;;;;;;;2.81;100.00;99565.16;1740039;82;21151;-70
2022/02/10 21:11:23;;;;;;;;;;;;;;;2.81;100.00;99563.80;1739620;82;20087;-68
2022/02/10 21:13:48;;;;;;;;;;;;;;;2.81;100.00;99571.94;1739026;81;20144;-67
2022/02/10 21:16:16;;;;;;;;;;;;;;;2.81;100.00;99562.45;1757608;81;20097;-66
2022/02/10 21:18:44;;;;;;;;;;;;;;;2.80;100.00;99567.59;1770457;80;20443;-67
2022/02/10 21:21:16;;;;;;;;;;;;;;;2.79;100.00;99557.29;1770861;81;21099;-67
2022/02/10 21:26:17;;;;;;;;;;;;;;;2.79;100.00;99567.31;1769709;81;20417;-67
2022/02/10 21:28:43;;;;;;;;;;;;;;;2.80;100.00;99571.12;1769438;80;20180;-68
2022/02/10 21:31:10;;;;;;;;;;;;;;;2.80;100.00;99565.70;1769161;81;20141;-68
2022/02/10 21:38:37;;;;;;;;;;;;;;;2.86;100.00;99552.98;1753483;80;20113;-66
2022/02/10 22:03:24;;;;;;;;;;;;;;;3.04;100.00;99539.45;1732045;81;20111;-72
2022/02/10 22:10:08;;;;;;;;;;;;;;;3.06;100.00;99532.69;1719386;81;20166;-69
2022/02/10 22:20:42;;;;;;;;;;;;;;;3.17;100.00;99526.75;1759127;81;20167;-70
2022/02/10 22:23:03;;;;;;;;;;;;;;;3.19;100.00;99534.90;1754520;81;20159;-70
2022/02/10 22:25:20;;;;;;;;;;;;;;;3.19;100.00;99524.59;1758556;81;21815;-70
2022/02/10 22:27:50;;;;;;;;;;;;;;;3.18;100.00;99533.27;1760048;81;20461;-69
2022/02/10 22:30:32;;;;;;;;;;;;;;;3.16;100.00;99526.48;1758056;81;20095;-70
2022/02/10 22:35:17;;;;;;;;;;;;;;;3.12;100.00;99534.33;1761307;81;20173;-70
2022/02/10 22:37:46;;;;;;;;;;;;;;;3.08;100.00;99531.06;1759362;81;21495;-71
2022/02/10 22:40:36;;;;;;;;;;;;;;;3.03;100.00;99519.66;1758452;81;20286;-68
2022/02/10 22:42:41;;;;;;;;;;;;;;;3.01;100.00;99528.60;1751993;80;20134;-68
2022/02/10 22:45:07;;;;;;;;;;;;;;;2.97;100.00;99528.32;1749933;81;20423;-70
2022/02/10 22:47:33;;;;;;;;;;;;;;;2.96;100.00;99516.38;1748023;81;20235;-70
2022/02/10 22:50:00;;;;;;;;;;;;;;;2.94;100.00;99523.43;1750787;81;21153;-71
2022/02/10 22:52:26;;;;;;;;;;;;;;;2.93;100.00;99521.80;1749471;81;20099;-69
2022/02/10 22:54:52;;;;;;;;;;;;;;;2.92;100.00;99513.92;1748253;81;20088;-67
2022/02/10 22:57:18;;;;;;;;;;;;;;;2.89;100.00;99509.85;1746920;81;20487;-70
2022/02/10 22:59:45;;;;;;;;;;;;;;;2.88;100.00;99512.32;1749963;81;20085;-70
2022/02/10 23:02:11;;;;;;;;;;;;;;;2.88;100.00;99511.50;1748123;81;21147;-68
2022/02/10 23:04:38;;;;;;;;;;;;;;;2.88;100.00;99519.09;1750502;81;20169;-68
2022/02/10 23:07:09;;;;;;;;;;;;;;;2.86;100.00;99517.73;1750163;81;20123;-68
2022/02/10 23:09:40;;;;;;;;;;;;;;;2.86;100.00;99509.60;1747713;81;20140;-68
2022/02/10 23:12:01;;;;;;;;;;;;;;;2.87;100.00;99515.30;1748889;81;20086;-68
2022/02/10 23:14:29;;;;;;;;;;;;;;;2.88;100.00;99513.67;1750876;81;21084;-68
2022/02/10 23:16:56;;;;;;;;;;;;;;;2.89;100.00;99515.27;1747322;80;20443;-68
2022/02/10 23:19:22;;;;;;;;;;;;;;;2.91;100.00;99513.66;1744980;81;20076;-68
2022/02/10 23:21:49;;;;;;;;;;;;;;;2.93;100.00;99513.66;1748432;81;20220;-70
2022/02/10 23:24:15;;;;;;;;;;;;;;;2.94;100.00;99511.77;1751208;81;20444;-70
2022/02/10 23:26:41;;;;;;;;;;;;;;;2.94;100.00;99508.52;1749227;81;21042;-69
2022/02/10 23:29:07;;;;;;;;;;;;;;;2.95;100.00;99507.97;1748564;81;20208;-68
2022/02/10 23:31:34;;;;;;;;;;;;;;;2.95;100.00;99514.75;1739197;81;20161;-67
2022/02/10 23:34:02;;;;;;;;;;;;;;;2.97;100.00;99505.81;1735304;82;20095;-67
2022/02/10 23:39:24;;;;;;;;;;;;;;;2.97;100.00;99512.59;1735051;82;21320;-67
2022/02/10 23:42:02;;;;;;;;;;;;;;;2.97;100.00;99505.81;1747401;81;20081;-69
2022/02/10 23:44:21;;;;;;;;;;;;;;;2.98;100.00;99502.83;1759964;81;20113;-69
2022/02/10 23:46:45;;;;;;;;;;;;;;;2.98;100.00;99504.73;1764863;81;20176;-69
2022/02/10 23:49:18;;;;;;;;;;;;;;;2.97;100.00;99513.95;1765416;81;20112;-68
2022/02/10 23:51:54;;;;;;;;;;;;;;;2.96;100.00;99507.70;1764963;81;21170;-68
2022/02/10 23:54:17;;;;;;;;;;;;;;;2.97;100.00;99510.69;1765705;81;20416;-68
2022/02/10 23:56:49;;;;;;;;;;;;;;;2.97;100.00;99496.31;1765442;81;20117;-69
2022/02/10 23:59:20;;;;;;;;;;;;;;;2.96;100.00;99500.92;1765656;81;20232;-68
